New Hampton, Iowa
Current Conditions -  °F | °C
As of 12:15 AM on Friday 19 Dec 2014 (Local Time) from KCCY Reporting Station
Overcast Overcast  
Wind Chill: 23°   Ceiling: 7000
Heat Index: 23°   Visibility: 9mi
Dew Point: 19°   Wind: 0mph
Humidity: 86%   Direction: NA
Pressure: 30.27"   Gusts: NA
Location:  43.06°N, 92.32°W
Report Text: KCCY 190615Z AUTO 00000KT 9SM OVC070 M05/M07 A3027 RMK AO2
Loading
Personal Weather Stations






























Interactive Weather Map New forecast layout! Learn more

10-Day Weather Forecast

Advertisements
Track Severe Weather on mobile